createdAt,value
2022-11-24T00:01:28.994Z,100296.23
2022-11-24T00:06:36.796Z,100303.78
2022-11-24T00:11:42.315Z,100302.70
2022-11-24T00:16:47.917Z,100302.86
2022-11-24T00:21:53.512Z,100300.84
2022-11-24T00:26:58.972Z,100308.13
2022-11-24T00:32:06.731Z,100306.48
2022-11-24T00:37:12.229Z,100314.27
2022-11-24T00:42:18.752Z,100303.45
2022-11-24T00:47:24.299Z,100299.81
2022-11-24T00:52:29.824Z,100299.88
2022-11-24T00:57:36.937Z,100302.98
2022-11-24T01:02:42.433Z,100304.70
2022-11-24T01:07:47.992Z,100304.50
2022-11-24T01:12:53.468Z,100306.22
2022-11-24T01:17:58.996Z,100304.96
2022-11-24T01:23:04.622Z,100301.72
2022-11-24T01:28:10.228Z,100306.55
2022-11-24T01:33:15.685Z,100300.19
2022-11-24T01:38:21.488Z,100302.39
2022-11-24T01:43:26.955Z,100302.39
2022-11-24T01:48:35.452Z,100306.58
2022-11-24T01:53:43.902Z,100305.84
2022-11-24T01:58:52.105Z,100301.52
2022-11-24T02:03:58.301Z,100306.20
2022-11-24T02:09:24.591Z,100312.05
2022-11-24T02:14:31.000Z,100317.48
2022-11-24T02:19:45.679Z,100316.16
2022-11-24T02:25:03.070Z,100314.55
2022-11-24T02:30:09.555Z,100320.78
2022-11-24T02:35:15.910Z,100318.13
2022-11-24T02:40:26.786Z,100340.56
2022-11-24T02:45:32.586Z,100340.56
2022-11-24T02:50:38.605Z,100346.11
2022-11-24T02:55:44.166Z,100329.23
2022-11-24T03:00:50.051Z,100339.11
2022-11-24T03:05:55.809Z,100315.77
2022-11-24T03:11:02.727Z,100315.77
2022-11-24T03:16:10.794Z,100322.67
2022-11-24T03:21:16.433Z,100340.09
2022-11-24T03:26:25.232Z,100340.09
2022-11-24T03:31:30.855Z,100332.23
2022-11-24T03:36:36.488Z,100339.09
2022-11-24T03:41:41.946Z,100357.59
2022-11-24T03:46:47.554Z,100353.95
2022-11-24T03:51:53.266Z,100346.59
2022-11-24T03:56:58.773Z,100335.45
2022-11-24T04:02:04.415Z,100341.33
2022-11-24T04:07:10.026Z,100341.33
2022-11-24T04:12:33.579Z,100349.77
2022-11-24T04:17:39.208Z,100344.41
2022-11-24T04:22:45.135Z,100346.78
2022-11-24T04:27:55.467Z,100352.48
2022-11-24T04:33:01.013Z,100351.01
2022-11-24T04:38:06.462Z,100364.84
2022-11-24T04:43:12.405Z,100364.84
2022-11-24T04:48:17.852Z,100370.42
2022-11-24T04:53:24.069Z,100386.48
2022-11-24T04:58:29.542Z,100386.88
2022-11-24T05:03:39.024Z,100387.50
2022-11-24T05:08:44.668Z,100385.77
2022-11-24T05:13:50.179Z,100396.96
2022-11-24T05:18:55.705Z,100398.75
2022-11-24T05:24:01.783Z,100416.20
2022-11-24T05:29:08.376Z,100416.20
2022-11-24T05:34:14.362Z,100438.06
2022-11-24T05:39:20.153Z,100441.27
2022-11-24T05:44:25.919Z,100443.12
2022-11-24T05:49:31.446Z,100427.58
2022-11-24T05:54:37.028Z,100422.33
2022-11-24T05:59:42.422Z,100425.55
2022-11-24T06:04:47.811Z,100431.31
2022-11-24T06:09:53.275Z,100435.98
2022-11-24T06:14:58.683Z,100458.98
2022-11-24T06:20:04.501Z,100452.12
2022-11-24T06:25:10.654Z,100472.17
2022-11-24T06:30:16.714Z,100469.63
2022-11-24T06:35:22.106Z,100481.35
2022-11-24T06:40:27.495Z,100486.02
2022-11-24T06:45:33.062Z,100491.31
2022-11-24T06:50:39.486Z,100491.31
2022-11-24T06:55:46.311Z,100491.78
2022-11-24T07:00:52.238Z,100494.61
2022-11-24T07:05:59.146Z,100489.53
2022-11-24T07:11:09.520Z,100488.42
2022-11-24T07:16:26.696Z,100488.42
2022-11-24T07:21:32.290Z,100486.00
2022-11-24T07:26:37.755Z,100499.17
2022-11-24T07:31:43.525Z,100509.19
2022-11-24T07:36:50.222Z,100520.20
2022-11-24T07:41:55.681Z,100520.20
2022-11-24T07:47:01.071Z,100533.72
2022-11-24T07:52:08.469Z,100528.73
2022-11-24T07:57:13.873Z,100538.24
2022-11-24T08:02:19.732Z,100534.15
2022-11-24T08:07:25.167Z,100548.91
2022-11-24T08:12:30.595Z,100540.44
2022-11-24T08:17:36.057Z,100560.38
2022-11-24T08:22:42.514Z,100560.38
2022-11-24T08:27:47.981Z,100570.88
2022-11-24T08:32:53.728Z,100574.67
2022-11-24T08:38:04.516Z,100577.99
2022-11-24T08:43:07.186Z,100571.73
2022-11-24T08:48:12.581Z,100584.23
2022-11-24T08:53:19.042Z,100579.93
2022-11-24T08:58:24.537Z,100581.77
2022-11-24T09:03:29.948Z,100576.81
2022-11-24T09:08:35.776Z,100587.35
2022-11-24T09:13:42.421Z,100586.67
2022-11-24T09:18:49.219Z,100598.67
2022-11-24T09:23:56.356Z,100603.16
2022-11-24T09:29:04.974Z,100598.79
2022-11-24T09:34:13.781Z,100605.53
2022-11-24T09:39:19.567Z,100604.88
2022-11-24T09:44:50.701Z,100613.20
2022-11-24T09:50:05.473Z,100611.69
2022-11-24T09:55:31.640Z,100616.03
2022-11-24T10:00:38.645Z,100610.91
2022-11-24T10:05:46.366Z,100615.67
2022-11-24T10:11:07.065Z,100615.73
2022-11-24T10:16:15.578Z,100620.64
2022-11-24T10:21:24.190Z,100613.88
2022-11-24T10:26:41.115Z,100620.98
2022-11-24T10:31:48.986Z,100622.55
2022-11-24T10:37:33.037Z,100632.25
2022-11-24T10:42:38.801Z,100640.44
2022-11-24T10:47:45.549Z,100626.81
2022-11-24T10:53:04.656Z,100629.64
2022-11-24T10:58:17.509Z,100626.34
2022-11-24T11:03:25.725Z,100627.22
2022-11-24T11:08:33.204Z,100618.85
2022-11-24T11:13:38.668Z,100623.25
2022-11-24T11:18:47.114Z,100620.87
2022-11-24T11:23:54.815Z,100624.10
2022-11-24T11:34:23.216Z,100630.09
2022-11-24T11:39:37.432Z,100641.81
2022-11-24T11:44:49.012Z,100639.17
2022-11-24T11:49:54.864Z,100640.09
2022-11-24T11:55:12.549Z,100630.45
2022-11-24T12:00:22.902Z,100618.50
2022-11-24T12:05:43.589Z,100620.23
2022-11-24T12:10:52.099Z,100627.62
2022-11-24T12:16:00.879Z,100628.77
2022-11-24T12:21:36.664Z,100643.03
2022-11-24T12:26:54.473Z,100648.55
2022-11-24T12:32:02.906Z,100648.98
2022-11-24T12:37:14.123Z,100649.38
2022-11-24T12:42:38.897Z,100653.30
2022-11-24T12:47:55.924Z,100643.09
2022-11-24T12:53:06.978Z,100645.62
2022-11-24T12:58:21.208Z,100648.62
2022-11-24T13:03:32.353Z,100661.03
2022-11-24T13:08:39.097Z,100667.20
2022-11-24T13:14:02.472Z,100666.45
2022-11-24T13:19:25.393Z,100666.92
2022-11-24T13:24:35.989Z,100672.86
2022-11-24T13:29:43.995Z,100672.18
2022-11-24T13:34:55.432Z,100688.23
2022-11-24T13:40:05.952Z,100692.50
2022-11-24T13:45:14.470Z,100698.73
2022-11-24T13:50:25.797Z,100705.42
2022-11-24T13:55:40.006Z,100712.29
2022-11-24T14:01:03.332Z,100712.63
2022-11-24T14:06:11.820Z,100709.88
2022-11-24T14:11:19.220Z,100719.64
2022-11-24T14:16:26.095Z,100721.42
2022-11-24T14:21:37.471Z,100723.31
2022-11-24T14:26:43.502Z,100729.67
2022-11-24T14:31:57.698Z,100720.95
2022-11-24T14:37:03.802Z,100721.81
2022-11-24T14:42:24.414Z,100731.61
2022-11-24T14:47:38.347Z,100730.74
2022-11-24T14:52:57.703Z,100738.70
2022-11-24T14:58:03.183Z,100746.15
2022-11-24T15:03:17.723Z,100758.63
2022-11-24T15:08:25.446Z,100769.02
2022-11-24T15:13:33.121Z,100777.77
2022-11-24T15:18:44.495Z,100782.06
2022-11-24T15:24:19.240Z,100783.20
2022-11-24T15:29:24.633Z,100791.38
2022-11-24T15:34:30.033Z,100806.62
2022-11-24T15:39:35.599Z,100801.92
2022-11-24T15:44:42.221Z,100807.13
2022-11-24T15:49:49.278Z,100809.42
2022-11-24T15:54:57.274Z,100821.42
2022-11-24T16:00:02.860Z,100821.42
2022-11-24T16:05:12.471Z,100812.44
2022-11-24T16:10:29.944Z,100818.45
2022-11-24T16:15:35.493Z,100821.77
2022-11-24T16:20:41.043Z,100821.86
2022-11-24T16:25:46.437Z,100820.39
2022-11-24T16:30:52.381Z,100818.55
2022-11-24T16:35:57.944Z,100830.33
2022-11-24T16:41:03.340Z,100836.66
2022-11-24T16:46:19.011Z,100840.30
2022-11-24T16:51:29.970Z,100840.80
2022-11-24T16:56:33.293Z,100848.91
2022-11-24T17:01:40.437Z,100842.68
2022-11-24T17:06:46.336Z,100846.87
2022-11-24T17:11:51.860Z,100851.61
2022-11-24T17:16:57.321Z,100853.34
2022-11-24T17:22:02.732Z,100858.66
2022-11-24T17:27:08.387Z,100850.70
2022-11-24T17:32:13.949Z,100857.68
2022-11-24T17:37:19.421Z,100865.19
2022-11-24T17:42:24.886Z,100875.14
2022-11-24T17:47:30.356Z,100876.93
2022-11-24T17:52:35.745Z,100876.88
2022-11-24T17:57:41.219Z,100883.35
2022-11-24T18:02:46.847Z,100882.23
2022-11-24T18:07:52.398Z,100884.02
2022-11-24T18:12:58.851Z,100890.64
2022-11-24T18:18:04.774Z,100890.30
2022-11-24T18:23:10.247Z,100895.87
2022-11-24T18:28:15.725Z,100884.98
2022-11-24T18:33:21.533Z,100894.33
2022-11-24T18:38:28.226Z,100888.50
2022-11-24T18:43:36.065Z,100881.41
2022-11-24T18:48:42.081Z,100886.12
2022-11-24T18:53:49.571Z,100889.53
2022-11-24T18:58:56.854Z,100891.57
2022-11-24T19:04:03.537Z,100890.30
2022-11-24T19:09:11.885Z,100887.94
2022-11-24T19:14:19.593Z,100896.83
2022-11-24T19:19:25.066Z,100897.85
2022-11-24T19:24:30.537Z,100891.81
2022-11-24T19:29:40.306Z,100899.42
2022-11-24T19:34:43.137Z,100914.38
2022-11-24T19:39:48.764Z,100915.05
2022-11-24T19:44:56.715Z,100919.55
2022-11-24T19:50:06.004Z,100917.05
2022-11-24T19:55:09.643Z,100920.97
2022-11-24T20:00:16.448Z,100924.09
2022-11-24T20:05:21.919Z,100929.55
2022-11-24T20:10:27.309Z,100936.94
2022-11-24T20:15:34.369Z,100931.13
2022-11-24T20:20:39.769Z,100936.84
2022-11-24T20:25:45.183Z,100934.19
2022-11-24T20:30:50.576Z,100941.91
2022-11-24T20:35:56.052Z,100951.49
2022-11-24T20:41:09.230Z,100954.83
2022-11-24T20:46:17.452Z,100959.06
2022-11-24T20:51:26.643Z,100969.88
2022-11-24T20:56:35.346Z,100972.69
2022-11-24T21:01:43.977Z,100983.36
2022-11-24T21:06:49.820Z,100987.61
2022-11-24T21:11:55.289Z,100982.76
2022-11-24T21:17:00.701Z,100976.88
2022-11-24T21:22:06.103Z,100966.97
2022-11-24T21:27:11.502Z,100963.23
2022-11-24T21:32:16.968Z,100960.39
2022-11-24T21:37:22.372Z,100963.66
2022-11-24T21:42:27.962Z,100977.70
2022-11-24T21:47:33.683Z,100977.03
2022-11-24T21:52:39.094Z,100973.91
2022-11-24T21:57:44.496Z,100970.14
2022-11-24T22:02:50.056Z,100982.69
2022-11-24T22:07:55.606Z,100984.08
2022-11-24T22:13:01.127Z,100993.37
2022-11-24T22:18:06.658Z,100989.13
2022-11-24T22:23:12.043Z,100994.59
2022-11-24T22:28:17.517Z,100985.48
2022-11-24T22:33:22.925Z,100993.08
2022-11-24T22:38:29.658Z,101004.61
2022-11-24T22:43:36.391Z,101005.97
2022-11-24T22:48:42.532Z,101007.70
2022-11-24T22:53:53.053Z,101006.13
2022-11-24T22:58:59.755Z,101010.31
2022-11-24T23:04:05.817Z,101018.14
2022-11-24T23:09:13.112Z,101019.34
2022-11-24T23:14:18.803Z,101020.84
2022-11-24T23:19:24.189Z,101023.91
2022-11-24T23:24:30.360Z,101020.45
2022-11-24T23:29:35.751Z,101019.78
2022-11-24T23:34:41.136Z,101026.47
2022-11-24T23:39:46.614Z,101036.74
2022-11-24T23:44:51.999Z,101035.56
2022-11-24T23:49:57.767Z,101032.19
2022-11-24T23:55:03.178Z,101037.56
